createdAt,value
2022-12-09T00:02:22.592Z,58.00
2022-12-09T00:04:49.892Z,57.90
2022-12-09T00:07:17.128Z,57.60
2022-12-09T00:09:44.060Z,58.00
2022-12-09T00:12:11.177Z,57.80
2022-12-09T00:14:38.228Z,58.00
2022-12-09T00:17:05.488Z,58.00
2022-12-09T00:19:34.471Z,57.60
2022-12-09T00:22:01.522Z,58.00
2022-12-09T00:24:28.590Z,57.50
2022-12-09T00:26:55.551Z,57.70
2022-12-09T00:29:22.672Z,57.90
2022-12-09T00:31:49.677Z,58.30
2022-12-09T00:34:16.760Z,57.90
2022-12-09T00:36:43.763Z,57.10
2022-12-09T00:39:12.326Z,57.30
2022-12-09T00:41:39.624Z,57.20
2022-12-09T00:44:06.881Z,57.60
2022-12-09T00:46:34.245Z,57.70
2022-12-09T00:49:01.243Z,57.90
2022-12-09T00:51:28.106Z,57.70
2022-12-09T00:53:55.923Z,57.60
2022-12-09T00:56:25.442Z,58.00
2022-12-09T00:58:52.780Z,57.70
2022-12-09T01:01:19.863Z,58.00
2022-12-09T01:03:46.906Z,57.60
2022-12-09T01:06:25.615Z,57.80
2022-12-09T01:08:52.994Z,57.30
2022-12-09T01:11:28.904Z,58.10
2022-12-09T01:14:00.869Z,57.90
2022-12-09T01:16:31.149Z,58.00
2022-12-09T01:19:00.328Z,57.90
2022-12-09T01:21:29.436Z,58.20
2022-12-09T01:23:56.526Z,57.80
2022-12-09T01:26:23.642Z,58.40
2022-12-09T01:28:52.821Z,58.90
2022-12-09T01:31:23.131Z,58.30
2022-12-09T01:33:50.572Z,58.30
2022-12-09T01:36:21.017Z,58.30
2022-12-09T01:38:48.716Z,58.30
2022-12-09T01:41:17.658Z,59.60
2022-12-09T01:43:45.576Z,58.70
2022-12-09T01:46:13.027Z,58.70
2022-12-09T01:48:46.445Z,58.30
2022-12-09T01:51:19.885Z,58.20
2022-12-09T01:53:50.096Z,58.70
2022-12-09T01:56:25.558Z,58.20
2022-12-09T01:58:54.519Z,58.60
2022-12-09T02:01:22.475Z,58.40
2022-12-09T02:03:50.344Z,58.40
2022-12-09T02:06:17.924Z,58.80
2022-12-09T02:08:46.824Z,58.90
2022-12-09T02:11:35.147Z,59.60
2022-12-09T02:14:23.351Z,59.00
2022-12-09T02:17:21.449Z,58.40
2022-12-09T02:20:25.404Z,58.60
2022-12-09T02:23:12.195Z,58.60
2022-12-09T02:26:07.881Z,59.20
2022-12-09T02:29:02.006Z,58.80
2022-12-09T02:31:43.238Z,59.20
2022-12-09T02:34:21.014Z,59.50
2022-12-09T02:37:11.494Z,59.20
2022-12-09T02:39:57.833Z,59.20
2022-12-09T02:42:31.264Z,58.50
2022-12-09T02:45:03.780Z,59.40
2022-12-09T02:47:34.455Z,59.00
2022-12-09T02:50:05.463Z,58.90
2022-12-09T02:52:35.561Z,58.90
2022-12-09T02:55:07.651Z,59.40
2022-12-09T02:57:37.216Z,59.30
2022-12-09T03:00:06.864Z,59.40
2022-12-09T03:02:44.842Z,59.40
2022-12-09T03:05:34.081Z,59.10
2022-12-09T03:08:19.219Z,58.90
2022-12-09T03:11:09.015Z,59.00
2022-12-09T03:13:57.175Z,58.80
2022-12-09T03:16:49.372Z,58.60
2022-12-09T03:20:00.446Z,59.10
2022-12-09T03:22:29.723Z,59.10
2022-12-09T03:25:06.999Z,59.30
2022-12-09T03:27:57.171Z,59.10
2022-12-09T03:30:24.111Z,58.60
2022-12-09T03:32:52.550Z,58.60
2022-12-09T03:35:25.318Z,59.00
2022-12-09T03:37:53.895Z,59.10
2022-12-09T03:40:25.808Z,58.70
2022-12-09T03:43:04.585Z,59.30
2022-12-09T03:45:32.457Z,59.10
2022-12-09T03:47:59.915Z,59.40
2022-12-09T03:50:31.205Z,59.40
2022-12-09T03:53:09.536Z,59.50
2022-12-09T03:55:54.993Z,59.40
2022-12-09T03:58:21.990Z,59.10
2022-12-09T04:00:49.544Z,59.60
2022-12-09T04:03:19.972Z,59.60
2022-12-09T04:05:47.785Z,59.40
2022-12-09T04:08:15.966Z,59.40
2022-12-09T04:10:43.002Z,59.70
2022-12-09T04:13:09.943Z,59.10
2022-12-09T04:15:36.827Z,59.80
2022-12-09T04:18:04.161Z,59.60
2022-12-09T04:20:31.089Z,59.50
2022-12-09T04:22:57.972Z,60.20
2022-12-09T04:25:24.910Z,59.60
2022-12-09T04:27:52.183Z,60.00
2022-12-09T04:30:19.228Z,59.50
2022-12-09T04:32:46.748Z,59.30
2022-12-09T04:35:13.785Z,59.50
2022-12-09T04:37:40.720Z,59.40
2022-12-09T04:40:08.550Z,58.90
2022-12-09T04:42:36.068Z,58.50
2022-12-09T04:45:03.630Z,58.10
2022-12-09T04:47:30.558Z,58.80
2022-12-09T04:49:57.789Z,58.40
2022-12-09T04:52:24.740Z,60.20
2022-12-09T04:54:51.643Z,59.30
2022-12-09T04:57:19.566Z,59.00
2022-12-09T04:59:46.520Z,59.00
2022-12-09T05:02:13.627Z,59.20
2022-12-09T05:04:42.963Z,58.40
2022-12-09T05:07:11.903Z,59.20
2022-12-09T05:09:39.692Z,59.40
2022-12-09T05:12:07.027Z,59.70
2022-12-09T05:14:34.018Z,59.00
2022-12-09T05:17:02.334Z,58.80
2022-12-09T05:19:29.460Z,59.50
2022-12-09T05:21:56.425Z,59.30
2022-12-09T05:24:23.652Z,58.40
2022-12-09T05:26:50.791Z,58.90
2022-12-09T05:29:22.785Z,58.70
2022-12-09T05:31:51.740Z,58.80
2022-12-09T05:34:19.211Z,59.00
2022-12-09T05:36:46.786Z,59.80
2022-12-09T05:39:13.988Z,59.30
2022-12-09T05:41:41.184Z,59.60
2022-12-09T05:44:08.286Z,59.20
2022-12-09T05:46:35.461Z,59.20
2022-12-09T05:49:03.090Z,59.10
2022-12-09T05:51:31.213Z,59.00
2022-12-09T05:54:03.826Z,59.20
2022-12-09T05:56:31.689Z,59.40
2022-12-09T05:58:59.483Z,59.10
2022-12-09T06:01:27.205Z,59.20
2022-12-09T06:03:55.469Z,59.00
2022-12-09T06:06:26.856Z,58.90
2022-12-09T06:09:00.669Z,58.50
2022-12-09T06:11:28.169Z,58.40
2022-12-09T06:13:56.169Z,59.00
2022-12-09T06:16:23.542Z,59.90
2022-12-09T06:18:51.560Z,59.10
2022-12-09T06:21:20.953Z,59.10
2022-12-09T06:23:49.928Z,58.90
2022-12-09T06:26:17.208Z,58.70
2022-12-09T06:28:44.573Z,58.20
2022-12-09T06:31:11.823Z,58.70
2022-12-09T06:33:57.127Z,59.60
2022-12-09T06:36:29.149Z,59.60
2022-12-09T06:39:01.769Z,59.60
2022-12-09T06:41:30.450Z,59.80
2022-12-09T06:43:58.463Z,57.10
2022-12-09T06:46:27.206Z,57.90
2022-12-09T06:48:55.960Z,57.70
2022-12-09T06:51:25.109Z,59.00
2022-12-09T06:53:52.841Z,58.20
2022-12-09T06:56:20.313Z,58.80
2022-12-09T06:58:48.245Z,58.90
2022-12-09T07:01:18.393Z,59.30
2022-12-09T07:03:51.687Z,58.80
2022-12-09T07:06:40.194Z,58.80
2022-12-09T07:09:19.831Z,57.60
2022-12-09T07:11:48.091Z,58.80
2022-12-09T07:14:16.893Z,58.60
2022-12-09T07:16:44.681Z,59.20
2022-12-09T07:19:19.188Z,58.60
2022-12-09T07:21:47.066Z,58.70
2022-12-09T07:24:14.121Z,58.50
2022-12-09T07:26:41.446Z,59.10
2022-12-09T07:29:09.309Z,58.60
2022-12-09T07:31:37.479Z,58.20
2022-12-09T07:34:05.577Z,58.30
2022-12-09T07:36:35.177Z,58.80
2022-12-09T07:39:06.549Z,58.90
2022-12-09T07:41:34.577Z,59.30
2022-12-09T07:44:01.884Z,58.80
2022-12-09T07:46:29.716Z,58.80
2022-12-09T07:48:57.555Z,58.60
2022-12-09T07:51:25.848Z,59.00
2022-12-09T07:53:53.749Z,58.10
2022-12-09T07:56:22.567Z,58.60
2022-12-09T07:58:53.356Z,58.70
2022-12-09T08:01:26.958Z,58.00
2022-12-09T08:03:55.356Z,58.90
2022-12-09T08:06:25.967Z,59.80
2022-12-09T08:08:53.919Z,60.20
2022-12-09T08:11:28.445Z,60.70
2022-12-09T08:14:02.861Z,60.70
2022-12-09T08:16:33.646Z,60.70
2022-12-09T08:19:01.075Z,60.90
2022-12-09T08:21:30.637Z,60.20
2022-12-09T08:24:01.137Z,60.30
2022-12-09T08:26:30.815Z,60.50
2022-12-09T08:28:58.920Z,59.80
2022-12-09T08:31:27.323Z,59.40
2022-12-09T08:33:55.128Z,59.20
2022-12-09T08:36:25.556Z,58.80
2022-12-09T08:38:53.031Z,59.10
2022-12-09T08:41:22.998Z,60.10
2022-12-09T08:43:50.135Z,59.80
2022-12-09T08:46:17.175Z,59.10
2022-12-09T08:48:44.702Z,59.20
2022-12-09T08:51:12.563Z,59.10
2022-12-09T08:53:40.278Z,59.40
2022-12-09T08:56:12.938Z,59.50
2022-12-09T08:58:41.102Z,58.80
2022-12-09T09:01:15.153Z,59.70
2022-12-09T09:03:42.898Z,59.00
2022-12-09T09:06:11.359Z,58.80
2022-12-09T09:08:39.505Z,58.30
2022-12-09T09:11:19.947Z,58.60
2022-12-09T09:13:51.674Z,58.70
2022-12-09T09:16:21.765Z,58.90
2022-12-09T09:18:49.935Z,58.80
2022-12-09T09:21:19.658Z,58.60
2022-12-09T09:23:47.559Z,58.90
2022-12-09T09:26:20.873Z,58.70
2022-12-09T09:28:48.727Z,59.00
2022-12-09T09:31:21.608Z,59.70
2022-12-09T09:33:49.898Z,60.40
2022-12-09T09:36:20.939Z,60.00
2022-12-09T09:38:49.451Z,60.50
2022-12-09T09:41:36.378Z,59.40
2022-12-09T09:44:04.754Z,58.90
2022-12-09T09:46:42.409Z,59.50
2022-12-09T09:49:18.936Z,59.40
2022-12-09T09:51:46.975Z,59.50
2022-12-09T09:54:16.076Z,59.70
2022-12-09T09:56:55.204Z,58.90
2022-12-09T09:59:27.944Z,59.40
2022-12-09T10:02:11.602Z,59.70
2022-12-09T10:04:45.388Z,59.60
2022-12-09T10:07:15.585Z,59.60
2022-12-09T10:10:09.453Z,59.80
2022-12-09T10:13:00.729Z,60.80
2022-12-09T10:16:06.437Z,60.10
2022-12-09T10:18:40.443Z,59.60
2022-12-09T10:21:19.455Z,59.30
2022-12-09T10:23:48.775Z,59.60
2022-12-09T10:26:22.911Z,59.70
2022-12-09T10:28:56.217Z,59.90
2022-12-09T10:31:24.498Z,59.00
2022-12-09T10:33:52.318Z,58.90
2022-12-09T10:36:35.223Z,59.20
2022-12-09T10:39:04.692Z,60.40
2022-12-09T10:42:13.522Z,59.70
2022-12-09T10:44:40.560Z,58.80
2022-12-09T10:47:25.915Z,59.50
2022-12-09T10:49:54.616Z,59.10
2022-12-09T10:52:29.134Z,59.20
2022-12-09T10:54:56.612Z,57.00
2022-12-09T10:57:26.819Z,57.50
2022-12-09T11:00:00.100Z,58.00
2022-12-09T11:02:28.743Z,58.40
2022-12-09T11:04:56.352Z,59.00
2022-12-09T11:07:27.985Z,58.30
2022-12-09T11:09:58.700Z,58.10
2022-12-09T11:12:32.108Z,58.40
2022-12-09T11:15:22.148Z,57.90
2022-12-09T11:18:15.798Z,58.10
2022-12-09T11:20:53.648Z,57.50
2022-12-09T11:23:21.332Z,57.10
2022-12-09T11:25:58.603Z,57.50
2022-12-09T11:28:26.088Z,57.40
2022-12-09T11:31:27.950Z,58.30
2022-12-09T11:34:03.595Z,57.90
2022-12-09T11:36:44.378Z,58.50
2022-12-09T11:39:20.251Z,57.20
2022-12-09T11:42:16.628Z,56.60
2022-12-09T11:45:01.912Z,57.10
2022-12-09T11:47:57.156Z,56.90
2022-12-09T11:50:24.028Z,56.70
2022-12-09T11:53:13.653Z,56.30
2022-12-09T11:56:03.435Z,55.60
2022-12-09T11:58:55.873Z,56.00
2022-12-09T12:01:41.988Z,54.90
2022-12-09T12:04:11.905Z,55.60
2022-12-09T12:06:49.412Z,55.70
2022-12-09T12:09:25.181Z,56.20
2022-12-09T12:12:27.016Z,55.60
2022-12-09T12:14:57.497Z,55.10
2022-12-09T12:17:38.139Z,55.20
2022-12-09T12:20:06.138Z,55.20
2022-12-09T12:23:19.746Z,55.20
2022-12-09T12:25:46.554Z,55.80
2022-12-09T12:28:21.949Z,55.20
2022-12-09T12:31:18.894Z,55.10
2022-12-09T12:34:24.742Z,54.60
2022-12-09T12:37:00.515Z,55.00
2022-12-09T12:39:42.242Z,54.80
2022-12-09T12:42:27.614Z,54.10
2022-12-09T12:45:33.981Z,55.80
2022-12-09T12:48:08.264Z,54.90
2022-12-09T12:51:03.231Z,55.70
2022-12-09T12:53:43.210Z,55.80
2022-12-09T12:56:24.319Z,56.40
2022-12-09T12:59:35.769Z,56.30
2022-12-09T13:02:14.928Z,56.40
2022-12-09T13:04:54.515Z,55.10
2022-12-09T13:07:41.534Z,55.10
2022-12-09T13:10:26.879Z,55.70
2022-12-09T13:12:59.577Z,56.20
2022-12-09T13:15:46.422Z,55.20
2022-12-09T13:18:19.316Z,55.90
2022-12-09T13:20:47.812Z,56.60
2022-12-09T13:23:26.834Z,56.00
2022-12-09T13:26:21.056Z,55.80
2022-12-09T13:29:17.745Z,56.10
2022-12-09T13:32:03.198Z,56.30
2022-12-09T13:34:42.079Z,57.80
2022-12-09T13:37:33.847Z,57.70
2022-12-09T13:40:01.831Z,58.00
2022-12-09T13:42:47.604Z,57.60
2022-12-09T13:45:28.380Z,58.00
2022-12-09T13:47:56.987Z,57.90
2022-12-09T13:50:31.074Z,58.20
2022-12-09T13:53:15.059Z,58.40
2022-12-09T13:55:49.854Z,59.50
2022-12-09T13:58:53.967Z,59.20
2022-12-09T14:01:27.289Z,58.80
2022-12-09T14:04:10.777Z,59.30
2022-12-09T14:06:50.868Z,58.40
2022-12-09T14:09:29.178Z,58.60
2022-12-09T14:11:57.624Z,59.60
2022-12-09T14:14:25.491Z,59.30
2022-12-09T14:16:59.619Z,58.70
2022-12-09T14:19:27.502Z,59.00
2022-12-09T14:22:20.071Z,59.40
2022-12-09T14:24:50.956Z,59.00
2022-12-09T14:27:17.919Z,58.50
2022-12-09T14:29:49.745Z,57.90
2022-12-09T14:32:28.997Z,58.80
2022-12-09T14:35:06.824Z,58.50
2022-12-09T14:38:01.758Z,58.50
2022-12-09T14:40:56.094Z,58.10
2022-12-09T14:44:00.609Z,58.30
2022-12-09T14:46:34.668Z,58.30
2022-12-09T14:49:12.671Z,58.80
2022-12-09T14:51:49.099Z,58.30
2022-12-09T14:54:19.580Z,58.40
2022-12-09T14:56:50.036Z,58.50
2022-12-09T14:59:22.475Z,58.60
2022-12-09T15:01:55.852Z,58.40
2022-12-09T15:04:25.677Z,58.10
2022-12-09T15:07:12.947Z,58.30
2022-12-09T15:09:51.342Z,57.70
2022-12-09T15:12:20.675Z,57.70
2022-12-09T15:14:51.387Z,58.00
2022-12-09T15:17:27.246Z,58.30
2022-12-09T15:20:02.040Z,58.20
2022-12-09T15:22:31.584Z,57.90
2022-12-09T15:24:59.249Z,58.00
2022-12-09T15:27:26.478Z,58.20
2022-12-09T15:29:54.309Z,58.30
2022-12-09T15:32:28.592Z,58.00
2022-12-09T15:34:55.932Z,57.30
2022-12-09T15:37:27.072Z,57.70
2022-12-09T15:40:10.191Z,57.20
2022-12-09T15:42:41.113Z,57.00
2022-12-09T15:45:13.582Z,57.70
2022-12-09T15:47:46.044Z,56.60
2022-12-09T15:50:31.361Z,56.70
2022-12-09T15:53:10.494Z,56.70
2022-12-09T15:55:44.686Z,57.10
2022-12-09T15:58:14.924Z,57.20
2022-12-09T16:00:47.122Z,57.70
2022-12-09T16:03:20.067Z,58.40
2022-12-09T16:05:56.581Z,58.30
2022-12-09T16:08:30.448Z,58.20
2022-12-09T16:10:58.563Z,58.10
2022-12-09T16:13:25.715Z,59.00
2022-12-09T16:15:56.318Z,58.90
2022-12-09T16:18:32.213Z,58.90
2022-12-09T16:21:17.776Z,58.70
2022-12-09T16:23:48.248Z,59.30
2022-12-09T16:26:29.343Z,59.20
2022-12-09T16:29:04.641Z,59.10
2022-12-09T16:31:31.788Z,60.00
2022-12-09T16:33:58.774Z,59.30
2022-12-09T16:36:31.261Z,59.00
2022-12-09T16:39:12.941Z,59.10
2022-12-09T16:41:52.180Z,58.40
2022-12-09T16:44:21.280Z,58.90
2022-12-09T16:46:48.234Z,58.70
2022-12-09T16:49:15.437Z,59.70
2022-12-09T16:51:42.286Z,58.60
2022-12-09T16:54:20.174Z,59.50
2022-12-09T16:56:48.592Z,58.70
2022-12-09T16:59:15.511Z,58.80
2022-12-09T17:01:43.015Z,59.10
2022-12-09T17:04:28.036Z,58.80
2022-12-09T17:06:55.743Z,58.60
2022-12-09T17:09:22.627Z,58.00
2022-12-09T17:11:49.563Z,58.60
2022-12-09T17:14:17.486Z,58.40
2022-12-09T17:16:45.082Z,58.70
2022-12-09T17:19:12.961Z,58.10
2022-12-09T17:21:39.945Z,58.40
2022-12-09T17:24:07.675Z,58.30
2022-12-09T17:26:35.038Z,58.20
2022-12-09T17:29:02.279Z,57.90
2022-12-09T17:31:29.639Z,57.60
2022-12-09T17:33:57.398Z,58.10
2022-12-09T17:36:24.450Z,58.20
2022-12-09T17:38:51.352Z,57.50
2022-12-09T17:41:20.869Z,57.90
2022-12-09T17:43:47.988Z,60.60
2022-12-09T17:46:15.117Z,58.50
2022-12-09T17:48:42.357Z,58.20
2022-12-09T17:51:12.001Z,57.90
2022-12-09T17:53:41.060Z,57.00
2022-12-09T17:56:16.976Z,57.10
2022-12-09T17:58:44.294Z,57.30
2022-12-09T18:01:21.823Z,57.00
2022-12-09T18:03:58.441Z,57.10
2022-12-09T18:06:28.455Z,56.00
2022-12-09T18:08:55.349Z,55.60
2022-12-09T18:11:22.526Z,57.40
2022-12-09T18:13:51.627Z,56.20
2022-12-09T18:16:19.229Z,56.20
2022-12-09T18:18:46.525Z,55.50
2022-12-09T18:21:16.371Z,56.30
2022-12-09T18:23:43.955Z,56.40
2022-12-09T18:26:16.287Z,56.40
2022-12-09T18:28:43.698Z,56.40
2022-12-09T18:31:14.076Z,56.20
2022-12-09T18:33:41.800Z,56.20
2022-12-09T18:36:15.616Z,56.40
2022-12-09T18:38:43.301Z,56.50
2022-12-09T18:41:19.276Z,56.30
2022-12-09T18:43:48.117Z,55.20
2022-12-09T18:46:25.199Z,54.40
2022-12-09T18:48:57.651Z,54.50
2022-12-09T18:51:24.846Z,55.20
2022-12-09T18:53:51.690Z,56.10
2022-12-09T18:56:19.224Z,56.20
2022-12-09T19:01:34.087Z,55.40
2022-12-09T19:04:02.897Z,56.20
2022-12-09T19:06:35.832Z,56.50
2022-12-09T19:09:28.478Z,55.30
2022-12-09T19:11:55.570Z,56.00
2022-12-09T19:14:23.708Z,56.20
2022-12-09T19:16:51.974Z,55.60
2022-12-09T19:19:21.862Z,56.10
2022-12-09T19:21:49.827Z,56.50
2022-12-09T19:24:25.995Z,55.80
2022-12-09T19:26:55.200Z,56.10
2022-12-09T19:29:24.708Z,56.60
2022-12-09T19:31:52.811Z,55.90
2022-12-09T19:34:25.425Z,55.60
2022-12-09T19:36:54.167Z,55.80
2022-12-09T19:39:24.041Z,55.50
2022-12-09T19:41:51.682Z,55.50
2022-12-09T19:44:37.125Z,55.50
2022-12-09T19:47:07.575Z,55.90
2022-12-09T19:49:34.700Z,55.20
2022-12-09T19:52:03.703Z,55.60
2022-12-09T19:54:30.612Z,56.00
2022-12-09T19:56:57.559Z,55.70
2022-12-09T19:59:24.459Z,55.30
2022-12-09T20:01:51.874Z,55.70
2022-12-09T20:04:48.139Z,56.50
2022-12-09T20:07:09.846Z,55.90
2022-12-09T20:09:37.865Z,54.60
2022-12-09T20:12:05.078Z,54.80
2022-12-09T20:14:32.077Z,54.90
2022-12-09T20:16:59.019Z,55.10
2022-12-09T20:19:25.953Z,55.70
2022-12-09T20:21:52.834Z,56.20
2022-12-09T20:24:20.038Z,55.70
2022-12-09T20:26:47.028Z,55.70
2022-12-09T20:29:13.966Z,56.00
2022-12-09T20:31:42.643Z,55.80
2022-12-09T20:34:13.947Z,55.80
2022-12-09T20:36:43.179Z,55.60
2022-12-09T20:39:19.135Z,56.00
2022-12-09T20:41:47.385Z,55.80
2022-12-09T20:44:15.755Z,55.70
2022-12-09T20:46:46.958Z,55.60
2022-12-09T20:49:14.333Z,54.90
2022-12-09T20:51:41.873Z,55.00
2022-12-09T20:54:11.072Z,53.70
2022-12-09T20:56:38.318Z,51.80
2022-12-09T20:59:06.708Z,51.90
2022-12-09T21:01:35.919Z,52.40
2022-12-09T21:04:06.089Z,51.60
2022-12-09T21:06:36.670Z,51.10
2022-12-09T21:09:08.432Z,52.90
2022-12-09T21:11:36.436Z,53.80
2022-12-09T21:14:05.267Z,55.50
2022-12-09T21:16:35.420Z,55.70
2022-12-09T21:19:05.709Z,55.50
2022-12-09T21:21:34.892Z,54.50
2022-12-09T21:24:03.699Z,55.10
2022-12-09T21:26:31.400Z,54.40
2022-12-09T21:29:00.696Z,55.70
2022-12-09T21:31:33.752Z,56.10
2022-12-09T21:34:04.693Z,55.00
2022-12-09T21:36:34.852Z,54.30
2022-12-09T21:39:02.365Z,55.40
2022-12-09T21:42:09.198Z,56.00
2022-12-09T21:44:36.129Z,56.20
2022-12-09T21:47:03.016Z,56.80
2022-12-09T21:49:31.682Z,58.20
2022-12-09T21:52:00.788Z,58.60
2022-12-09T21:54:27.735Z,58.90
2022-12-09T21:56:54.671Z,59.10
2022-12-09T21:59:21.656Z,58.70
2022-12-09T22:01:48.625Z,58.50
2022-12-09T22:04:17.528Z,58.30
2022-12-09T22:06:46.689Z,58.30
2022-12-09T22:09:13.875Z,58.20
2022-12-09T22:11:42.356Z,58.00
2022-12-09T22:14:10.521Z,58.10
2022-12-09T22:16:40.526Z,57.90
2022-12-09T22:19:08.559Z,57.60
2022-12-09T22:21:36.780Z,57.70
2022-12-09T22:24:06.675Z,58.20
2022-12-09T22:26:34.297Z,57.50
2022-12-09T22:29:05.849Z,57.80
2022-12-09T22:31:36.995Z,57.30
2022-12-09T22:34:11.246Z,57.10
2022-12-09T22:36:38.446Z,56.60
2022-12-09T22:39:08.832Z,56.90
2022-12-09T22:41:35.868Z,57.20
2022-12-09T22:44:03.048Z,56.80
2022-12-09T22:46:32.353Z,56.70
2022-12-09T22:49:02.258Z,56.90
2022-12-09T22:51:31.641Z,57.30
2022-12-09T22:54:00.467Z,58.00
2022-12-09T22:56:28.155Z,58.10
2022-12-09T22:58:55.123Z,58.00
2022-12-09T23:01:25.911Z,58.40
2022-12-09T23:03:54.858Z,58.40
2022-12-09T23:06:21.966Z,58.70
2022-12-09T23:08:49.164Z,58.60
2022-12-09T23:11:21.688Z,58.30
2022-12-09T23:13:49.235Z,57.60
2022-12-09T23:16:18.936Z,57.80
2022-12-09T23:18:46.367Z,58.00
2022-12-09T23:21:17.702Z,57.60
2022-12-09T23:23:45.075Z,57.50
2022-12-09T23:26:17.790Z,57.60
2022-12-09T23:28:47.380Z,58.00
2022-12-09T23:31:17.488Z,58.60
2022-12-09T23:33:46.181Z,58.10
2022-12-09T23:36:15.968Z,58.10
2022-12-09T23:38:43.556Z,57.10
2022-12-09T23:41:12.557Z,57.30
2022-12-09T23:43:39.791Z,57.90
2022-12-09T23:46:15.639Z,57.40
2022-12-09T23:48:44.301Z,56.90
2022-12-09T23:51:14.183Z,57.00
2022-12-09T23:53:42.332Z,57.10
2022-12-09T23:56:14.543Z,57.50
2022-12-09T23:58:42.100Z,56.80
